sensor_id;sensor_type;location;lat;lon;timestamp;P1;durP1;ratioP1;P2;durP2;ratioP2
69325;SDS011;56471;53.508;49.252;2023-06-26T00:00:34;1.98;;;1.70;;
69325;SDS011;56471;53.508;49.252;2023-06-26T00:02:59;1.67;;;1.58;;
69325;SDS011;56471;53.508;49.252;2023-06-26T00:05:25;3.15;;;1.90;;
69325;SDS011;56471;53.508;49.252;2023-06-26T00:07:52;1.60;;;1.50;;
69325;SDS011;56471;53.508;49.252;2023-06-26T00:10:18;2.00;;;1.80;;
69325;SDS011;56471;53.508;49.252;2023-06-26T00:12:44;1.70;;;1.50;;
69325;SDS011;56471;53.508;49.252;2023-06-26T00:15:09;2.80;;;1.70;;
69325;SDS011;56471;53.508;49.252;2023-06-26T00:17:35;2.25;;;1.75;;
69325;SDS011;56471;53.508;49.252;2023-06-26T00:20:02;2.15;;;1.63;;
69325;SDS011;56471;53.508;49.252;2023-06-26T00:22:29;1.67;;;1.52;;
69325;SDS011;56471;53.508;49.252;2023-06-26T00:24:54;3.17;;;1.67;;
69325;SDS011;56471;53.508;49.252;2023-06-26T00:27:20;2.90;;;1.65;;
69325;SDS011;56471;53.508;49.252;2023-06-26T00:29:46;1.70;;;1.60;;
69325;SDS011;56471;53.508;49.252;2023-06-26T00:32:11;1.90;;;1.60;;
69325;SDS011;56471;53.508;49.252;2023-06-26T00:34:37;1.77;;;1.60;;
69325;SDS011;56471;53.508;49.252;2023-06-26T00:37:03;1.80;;;1.60;;
69325;SDS011;56471;53.508;49.252;2023-06-26T00:39:29;3.03;;;1.60;;
69325;SDS011;56471;53.508;49.252;2023-06-26T00:41:54;2.38;;;1.63;;
69325;SDS011;56471;53.508;49.252;2023-06-26T00:44:20;2.55;;;1.60;;
69325;SDS011;56471;53.508;49.252;2023-06-26T00:46:46;2.20;;;1.80;;
69325;SDS011;56471;53.508;49.252;2023-06-26T00:49:12;2.30;;;1.80;;
69325;SDS011;56471;53.508;49.252;2023-06-26T00:51:38;1.80;;;1.42;;
69325;SDS011;56471;53.508;49.252;2023-06-26T00:54:03;2.08;;;1.75;;
69325;SDS011;56471;53.508;49.252;2023-06-26T00:56:30;2.67;;;1.88;;
69325;SDS011;56471;53.508;49.252;2023-06-26T00:58:56;2.30;;;1.83;;
69325;SDS011;56471;53.508;49.252;2023-06-26T01:01:22;2.53;;;1.95;;
69325;SDS011;56471;53.508;49.252;2023-06-26T01:03:50;2.38;;;1.70;;
69325;SDS011;56471;53.508;49.252;2023-06-26T01:06:18;3.05;;;1.65;;
69325;SDS011;56471;53.508;49.252;2023-06-26T01:08:46;1.92;;;1.77;;
69325;SDS011;56471;53.508;49.252;2023-06-26T01:11:13;2.70;;;1.90;;
69325;SDS011;56471;53.508;49.252;2023-06-26T01:13:40;2.40;;;2.00;;
69325;SDS011;56471;53.508;49.252;2023-06-26T01:16:09;2.10;;;1.75;;
69325;SDS011;56471;53.508;49.252;2023-06-26T01:18:35;2.38;;;2.03;;
69325;SDS011;56471;53.508;49.252;2023-06-26T01:21:02;2.03;;;1.83;;
69325;SDS011;56471;53.508;49.252;2023-06-26T01:23:31;2.15;;;1.70;;
69325;SDS011;56471;53.508;49.252;2023-06-26T01:26:24;2.65;;;1.92;;
69325;SDS011;56471;53.508;49.252;2023-06-26T01:28:53;2.42;;;2.00;;
69325;SDS011;56471;53.508;49.252;2023-06-26T01:31:21;2.10;;;1.70;;
69325;SDS011;56471;53.508;49.252;2023-06-26T01:33:47;2.00;;;1.63;;
69325;SDS011;56471;53.508;49.252;2023-06-26T01:36:14;2.28;;;1.80;;
69325;SDS011;56471;53.508;49.252;2023-06-26T01:38:40;3.28;;;1.90;;
69325;SDS011;56471;53.508;49.252;2023-06-26T01:41:06;2.05;;;1.60;;
69325;SDS011;56471;53.508;49.252;2023-06-26T01:46:25;2.58;;;1.65;;
69325;SDS011;56471;53.508;49.252;2023-06-26T01:49:10;2.45;;;1.70;;
69325;SDS011;56471;53.508;49.252;2023-06-26T01:51:45;1.80;;;1.65;;
69325;SDS011;56471;53.508;49.252;2023-06-26T01:54:18;3.20;;;1.80;;
69325;SDS011;56471;53.508;49.252;2023-06-26T01:56:49;3.60;;;1.70;;
69325;SDS011;56471;53.508;49.252;2023-06-26T01:59:17;3.05;;;1.70;;
69325;SDS011;56471;53.508;49.252;2023-06-26T02:01:44;2.17;;;1.80;;
69325;SDS011;56471;53.508;49.252;2023-06-26T02:04:10;1.65;;;1.55;;
69325;SDS011;56471;53.508;49.252;2023-06-26T02:06:35;1.90;;;1.73;;
69325;SDS011;56471;53.508;49.252;2023-06-26T02:09:01;1.98;;;1.80;;
69325;SDS011;56471;53.508;49.252;2023-06-26T02:11:27;2.95;;;2.10;;
69325;SDS011;56471;53.508;49.252;2023-06-26T02:13:52;2.40;;;1.90;;
69325;SDS011;56471;53.508;49.252;2023-06-26T02:16:18;2.17;;;1.60;;
69325;SDS011;56471;53.508;49.252;2023-06-26T02:18:44;1.95;;;1.75;;
69325;SDS011;56471;53.508;49.252;2023-06-26T02:21:10;1.70;;;1.60;;
69325;SDS011;56471;53.508;49.252;2023-06-26T02:23:35;2.63;;;1.80;;
69325;SDS011;56471;53.508;49.252;2023-06-26T02:26:02;2.42;;;1.90;;
69325;SDS011;56471;53.508;49.252;2023-06-26T02:28:27;1.85;;;1.60;;
69325;SDS011;56471;53.508;49.252;2023-06-26T02:30:53;2.00;;;1.70;;
69325;SDS011;56471;53.508;49.252;2023-06-26T02:33:19;1.92;;;1.70;;
69325;SDS011;56471;53.508;49.252;2023-06-26T02:35:44;1.98;;;1.70;;
69325;SDS011;56471;53.508;49.252;2023-06-26T02:38:10;1.75;;;1.60;;
69325;SDS011;56471;53.508;49.252;2023-06-26T02:40:37;2.35;;;1.70;;
69325;SDS011;56471;53.508;49.252;2023-06-26T02:43:06;3.08;;;1.85;;
69325;SDS011;56471;53.508;49.252;2023-06-26T02:45:32;2.20;;;1.80;;
69325;SDS011;56471;53.508;49.252;2023-06-26T02:47:57;2.70;;;2.00;;
69325;SDS011;56471;53.508;49.252;2023-06-26T02:50:23;2.25;;;1.85;;
69325;SDS011;56471;53.508;49.252;2023-06-26T02:52:48;3.05;;;2.10;;
69325;SDS011;56471;53.508;49.252;2023-06-26T02:55:17;4.57;;;2.40;;
69325;SDS011;56471;53.508;49.252;2023-06-26T02:57:44;3.38;;;2.03;;
69325;SDS011;56471;53.508;49.252;2023-06-26T03:00:10;4.40;;;2.42;;
69325;SDS011;56471;53.508;49.252;2023-06-26T03:02:36;4.13;;;2.33;;
69325;SDS011;56471;53.508;49.252;2023-06-26T03:05:02;4.15;;;2.58;;
69325;SDS011;56471;53.508;49.252;2023-06-26T03:07:29;6.25;;;3.20;;
69325;SDS011;56471;53.508;49.252;2023-06-26T03:09:55;5.82;;;3.20;;
69325;SDS011;56471;53.508;49.252;2023-06-26T03:12:20;5.82;;;2.95;;
69325;SDS011;56471;53.508;49.252;2023-06-26T03:14:46;5.30;;;3.03;;
69325;SDS011;56471;53.508;49.252;2023-06-26T03:17:12;5.30;;;3.05;;
69325;SDS011;56471;53.508;49.252;2023-06-26T03:19:37;5.38;;;3.22;;
69325;SDS011;56471;53.508;49.252;2023-06-26T03:22:03;5.30;;;3.00;;
69325;SDS011;56471;53.508;49.252;2023-06-26T03:24:29;6.32;;;3.10;;
69325;SDS011;56471;53.508;49.252;2023-06-26T03:26:55;5.03;;;2.60;;
69325;SDS011;56471;53.508;49.252;2023-06-26T03:29:20;4.45;;;2.88;;
69325;SDS011;56471;53.508;49.252;2023-06-26T03:31:46;3.92;;;2.58;;
69325;SDS011;56471;53.508;49.252;2023-06-26T03:34:12;6.22;;;2.78;;
69325;SDS011;56471;53.508;49.252;2023-06-26T03:36:38;4.22;;;2.78;;
69325;SDS011;56471;53.508;49.252;2023-06-26T03:39:03;4.30;;;2.72;;
69325;SDS011;56471;53.508;49.252;2023-06-26T03:41:29;4.72;;;2.50;;
69325;SDS011;56471;53.508;49.252;2023-06-26T03:43:55;4.20;;;2.85;;
69325;SDS011;56471;53.508;49.252;2023-06-26T03:46:21;5.28;;;2.90;;
69325;SDS011;56471;53.508;49.252;2023-06-26T03:48:47;4.88;;;2.58;;
69325;SDS011;56471;53.508;49.252;2023-06-26T03:51:14;3.03;;;2.28;;
69325;SDS011;56471;53.508;49.252;2023-06-26T03:53:39;3.70;;;2.30;;
69325;SDS011;56471;53.508;49.252;2023-06-26T03:56:05;4.47;;;2.50;;
69325;SDS011;56471;53.508;49.252;2023-06-26T03:58:31;4.28;;;2.28;;
69325;SDS011;56471;53.508;49.252;2023-06-26T04:00:57;3.13;;;2.22;;
69325;SDS011;56471;53.508;49.252;2023-06-26T04:03:23;2.78;;;2.10;;
69325;SDS011;56471;53.508;49.252;2023-06-26T04:05:48;3.40;;;2.28;;
69325;SDS011;56471;53.508;49.252;2023-06-26T04:08:14;3.88;;;2.47;;
69325;SDS011;56471;53.508;49.252;2023-06-26T04:10:40;3.45;;;2.30;;
69325;SDS011;56471;53.508;49.252;2023-06-26T04:13:05;3.78;;;2.40;;
69325;SDS011;56471;53.508;49.252;2023-06-26T04:15:31;3.78;;;2.47;;
69325;SDS011;56471;53.508;49.252;2023-06-26T04:17:56;3.42;;;2.25;;
69325;SDS011;56471;53.508;49.252;2023-06-26T04:20:22;3.72;;;1.98;;
69325;SDS011;56471;53.508;49.252;2023-06-26T04:22:48;2.22;;;1.80;;
69325;SDS011;56471;53.508;49.252;2023-06-26T04:25:13;3.28;;;2.42;;
69325;SDS011;56471;53.508;49.252;2023-06-26T04:27:39;3.85;;;2.33;;
69325;SDS011;56471;53.508;49.252;2023-06-26T04:30:05;2.78;;;2.22;;
69325;SDS011;56471;53.508;49.252;2023-06-26T04:32:31;2.95;;;2.30;;
69325;SDS011;56471;53.508;49.252;2023-06-26T04:34:57;3.08;;;2.20;;
69325;SDS011;56471;53.508;49.252;2023-06-26T04:37:22;2.47;;;2.03;;
69325;SDS011;56471;53.508;49.252;2023-06-26T04:39:49;2.75;;;2.10;;
69325;SDS011;56471;53.508;49.252;2023-06-26T04:42:15;2.33;;;2.10;;
69325;SDS011;56471;53.508;49.252;2023-06-26T04:44:41;3.10;;;2.20;;
69325;SDS011;56471;53.508;49.252;2023-06-26T04:47:07;2.60;;;2.10;;
69325;SDS011;56471;53.508;49.252;2023-06-26T04:49:33;2.53;;;2.10;;
69325;SDS011;56471;53.508;49.252;2023-06-26T04:51:59;5.72;;;2.17;;
69325;SDS011;56471;53.508;49.252;2023-06-26T04:54:25;2.67;;;2.10;;
69325;SDS011;56471;53.508;49.252;2023-06-26T04:56:51;2.75;;;2.13;;
69325;SDS011;56471;53.508;49.252;2023-06-26T04:59:17;2.53;;;2.10;;
69325;SDS011;56471;53.508;49.252;2023-06-26T05:01:43;2.30;;;2.03;;
69325;SDS011;56471;53.508;49.252;2023-06-26T05:04:13;2.63;;;2.20;;
69325;SDS011;56471;53.508;49.252;2023-06-26T05:06:40;3.05;;;2.38;;
69325;SDS011;56471;53.508;49.252;2023-06-26T05:09:06;2.83;;;2.40;;
69325;SDS011;56471;53.508;49.252;2023-06-26T05:11:31;1.95;;;1.77;;
69325;SDS011;56471;53.508;49.252;2023-06-26T05:13:57;2.63;;;2.30;;
69325;SDS011;56471;53.508;49.252;2023-06-26T05:16:23;2.80;;;2.20;;
69325;SDS011;56471;53.508;49.252;2023-06-26T05:18:48;2.72;;;2.10;;
69325;SDS011;56471;53.508;49.252;2023-06-26T05:21:14;3.33;;;2.22;;
69325;SDS011;56471;53.508;49.252;2023-06-26T05:23:41;2.45;;;2.17;;
69325;SDS011;56471;53.508;49.252;2023-06-26T05:26:09;3.03;;;2.45;;
69325;SDS011;56471;53.508;49.252;2023-06-26T05:28:36;4.00;;;2.67;;
69325;SDS011;56471;53.508;49.252;2023-06-26T05:31:02;2.55;;;2.03;;
69325;SDS011;56471;53.508;49.252;2023-06-26T05:33:30;3.90;;;2.35;;
69325;SDS011;56471;53.508;49.252;2023-06-26T05:35:56;3.47;;;2.40;;
69325;SDS011;56471;53.508;49.252;2023-06-26T05:38:23;2.70;;;2.17;;
69325;SDS011;56471;53.508;49.252;2023-06-26T05:40:49;4.07;;;2.40;;
69325;SDS011;56471;53.508;49.252;2023-06-26T05:43:15;3.05;;;2.28;;
69325;SDS011;56471;53.508;49.252;2023-06-26T05:45:41;2.60;;;2.20;;
69325;SDS011;56471;53.508;49.252;2023-06-26T05:48:07;2.60;;;2.22;;
69325;SDS011;56471;53.508;49.252;2023-06-26T05:50:33;3.03;;;2.50;;
69325;SDS011;56471;53.508;49.252;2023-06-26T05:52:59;3.00;;;2.40;;
69325;SDS011;56471;53.508;49.252;2023-06-26T05:55:28;3.42;;;2.28;;
69325;SDS011;56471;53.508;49.252;2023-06-26T05:57:54;2.55;;;2.30;;
69325;SDS011;56471;53.508;49.252;2023-06-26T06:00:23;3.10;;;2.70;;
69325;SDS011;56471;53.508;49.252;2023-06-26T06:02:51;3.13;;;2.50;;
69325;SDS011;56471;53.508;49.252;2023-06-26T06:05:19;2.58;;;2.30;;
69325;SDS011;56471;53.508;49.252;2023-06-26T06:07:45;2.40;;;2.20;;
69325;SDS011;56471;53.508;49.252;2023-06-26T06:10:12;2.75;;;2.40;;
69325;SDS011;56471;53.508;49.252;2023-06-26T06:12:37;2.35;;;2.15;;
69325;SDS011;56471;53.508;49.252;2023-06-26T06:15:03;2.70;;;2.10;;
69325;SDS011;56471;53.508;49.252;2023-06-26T06:17:30;2.63;;;2.40;;
69325;SDS011;56471;53.508;49.252;2023-06-26T06:19:55;2.60;;;2.28;;
69325;SDS011;56471;53.508;49.252;2023-06-26T06:22:21;2.78;;;2.47;;
69325;SDS011;56471;53.508;49.252;2023-06-26T06:24:48;2.45;;;2.20;;
69325;SDS011;56471;53.508;49.252;2023-06-26T06:27:15;5.97;;;3.05;;
69325;SDS011;56471;53.508;49.252;2023-06-26T06:29:41;6.68;;;4.03;;
69325;SDS011;56471;53.508;49.252;2023-06-26T06:32:06;37.20;;;23.45;;
69325;SDS011;56471;53.508;49.252;2023-06-26T06:34:32;265.40;;;227.45;;
69325;SDS011;56471;53.508;49.252;2023-06-26T06:36:58;225.43;;;182.55;;
69325;SDS011;56471;53.508;49.252;2023-06-26T06:39:23;178.68;;;137.73;;
69325;SDS011;56471;53.508;49.252;2023-06-26T06:41:49;137.73;;;106.75;;
69325;SDS011;56471;53.508;49.252;2023-06-26T06:44:15;80.43;;;54.97;;
69325;SDS011;56471;53.508;49.252;2023-06-26T06:46:40;62.15;;;42.97;;
69325;SDS011;56471;53.508;49.252;2023-06-26T06:49:06;39.60;;;27.75;;
69325;SDS011;56471;53.508;49.252;2023-06-26T06:51:33;32.45;;;22.25;;
69325;SDS011;56471;53.508;49.252;2023-06-26T06:53:58;26.08;;;19.00;;
69325;SDS011;56471;53.508;49.252;2023-06-26T06:56:24;20.98;;;15.07;;
69325;SDS011;56471;53.508;49.252;2023-06-26T06:58:50;15.00;;;11.15;;
69325;SDS011;56471;53.508;49.252;2023-06-26T07:01:15;12.50;;;9.18;;
69325;SDS011;56471;53.508;49.252;2023-06-26T07:03:41;7.70;;;6.07;;
69325;SDS011;56471;53.508;49.252;2023-06-26T07:06:07;6.78;;;5.47;;
69325;SDS011;56471;53.508;49.252;2023-06-26T07:08:32;8.43;;;4.95;;
69325;SDS011;56471;53.508;49.252;2023-06-26T07:10:58;6.93;;;5.50;;
69325;SDS011;56471;53.508;49.252;2023-06-26T07:13:24;9.77;;;6.80;;
69325;SDS011;56471;53.508;49.252;2023-06-26T07:15:50;10.00;;;5.18;;
69325;SDS011;56471;53.508;49.252;2023-06-26T07:18:16;8.27;;;4.70;;
69325;SDS011;56471;53.508;49.252;2023-06-26T07:20:42;7.72;;;4.40;;
69325;SDS011;56471;53.508;49.252;2023-06-26T07:23:07;8.52;;;5.05;;
69325;SDS011;56471;53.508;49.252;2023-06-26T07:25:33;11.75;;;5.10;;
69325;SDS011;56471;53.508;49.252;2023-06-26T07:27:59;11.55;;;4.88;;
69325;SDS011;56471;53.508;49.252;2023-06-26T07:30:25;9.77;;;4.78;;
69325;SDS011;56471;53.508;49.252;2023-06-26T07:32:51;4.93;;;4.30;;
69325;SDS011;56471;53.508;49.252;2023-06-26T07:35:16;134.98;;;100.15;;
69325;SDS011;56471;53.508;49.252;2023-06-26T07:37:42;357.52;;;307.08;;
69325;SDS011;56471;53.508;49.252;2023-06-26T07:40:08;245.48;;;194.93;;
69325;SDS011;56471;53.508;49.252;2023-06-26T07:42:34;165.60;;;126.22;;
69325;SDS011;56471;53.508;49.252;2023-06-26T07:45:00;116.18;;;85.70;;
69325;SDS011;56471;53.508;49.252;2023-06-26T07:47:26;91.50;;;64.75;;
69325;SDS011;56471;53.508;49.252;2023-06-26T07:49:51;76.45;;;51.13;;
69325;SDS011;56471;53.508;49.252;2023-06-26T07:52:17;48.00;;;33.78;;
69325;SDS011;56471;53.508;49.252;2023-06-26T07:54:44;34.15;;;24.40;;
69325;SDS011;56471;53.508;49.252;2023-06-26T07:57:10;25.02;;;18.27;;
69325;SDS011;56471;53.508;49.252;2023-06-26T07:59:37;17.13;;;12.88;;
69325;SDS011;56471;53.508;49.252;2023-06-26T08:02:02;12.27;;;9.50;;
69325;SDS011;56471;53.508;49.252;2023-06-26T08:04:28;9.18;;;7.07;;
69325;SDS011;56471;53.508;49.252;2023-06-26T08:06:59;7.65;;;6.55;;
69325;SDS011;56471;53.508;49.252;2023-06-26T08:09:26;8.70;;;5.90;;
69325;SDS011;56471;53.508;49.252;2023-06-26T08:11:52;6.88;;;4.88;;
69325;SDS011;56471;53.508;49.252;2023-06-26T08:14:18;5.13;;;4.63;;
69325;SDS011;56471;53.508;49.252;2023-06-26T08:16:44;7.10;;;4.90;;
69325;SDS011;56471;53.508;49.252;2023-06-26T08:19:11;6.38;;;4.57;;
69325;SDS011;56471;53.508;49.252;2023-06-26T08:21:37;5.70;;;4.05;;
69325;SDS011;56471;53.508;49.252;2023-06-26T08:24:03;157.07;;;118.18;;
69325;SDS011;56471;53.508;49.252;2023-06-26T08:26:29;181.93;;;135.00;;
69325;SDS011;56471;53.508;49.252;2023-06-26T08:28:54;156.18;;;115.38;;
69325;SDS011;56471;53.508;49.252;2023-06-26T08:31:20;112.38;;;79.15;;
69325;SDS011;56471;53.508;49.252;2023-06-26T08:33:46;81.25;;;53.88;;
69325;SDS011;56471;53.508;49.252;2023-06-26T08:36:12;50.92;;;34.78;;
69325;SDS011;56471;53.508;49.252;2023-06-26T08:38:38;34.55;;;24.50;;
69325;SDS011;56471;53.508;49.252;2023-06-26T08:41:05;23.88;;;17.17;;
69325;SDS011;56471;53.508;49.252;2023-06-26T08:43:34;18.30;;;13.32;;
69325;SDS011;56471;53.508;49.252;2023-06-26T08:46:00;12.07;;;8.75;;
69325;SDS011;56471;53.508;49.252;2023-06-26T08:48:26;10.93;;;7.35;;
69325;SDS011;56471;53.508;49.252;2023-06-26T08:50:56;7.30;;;5.70;;
69325;SDS011;56471;53.508;49.252;2023-06-26T08:53:43;6.13;;;5.43;;
69325;SDS011;56471;53.508;49.252;2023-06-26T08:56:11;6.72;;;5.07;;
69325;SDS011;56471;53.508;49.252;2023-06-26T08:58:40;6.05;;;4.43;;
69325;SDS011;56471;53.508;49.252;2023-06-26T09:01:06;6.00;;;4.88;;
69325;SDS011;56471;53.508;49.252;2023-06-26T09:03:32;5.13;;;4.45;;
69325;SDS011;56471;53.508;49.252;2023-06-26T09:05:59;5.53;;;3.83;;
69325;SDS011;56471;53.508;49.252;2023-06-26T09:08:25;4.10;;;3.70;;
69325;SDS011;56471;53.508;49.252;2023-06-26T09:10:51;4.70;;;4.10;;
69325;SDS011;56471;53.508;49.252;2023-06-26T09:13:18;6.22;;;4.30;;
69325;SDS011;56471;53.508;49.252;2023-06-26T09:15:44;4.32;;;3.58;;
69325;SDS011;56471;53.508;49.252;2023-06-26T09:18:11;4.40;;;4.00;;
69325;SDS011;56471;53.508;49.252;2023-06-26T09:20:37;4.53;;;3.85;;
69325;SDS011;56471;53.508;49.252;2023-06-26T09:23:03;5.45;;;4.10;;
69325;SDS011;56471;53.508;49.252;2023-06-26T09:25:29;4.65;;;4.13;;
69325;SDS011;56471;53.508;49.252;2023-06-26T09:27:55;5.15;;;3.92;;
69325;SDS011;56471;53.508;49.252;2023-06-26T09:30:21;6.22;;;4.20;;
69325;SDS011;56471;53.508;49.252;2023-06-26T09:32:47;4.55;;;3.97;;
69325;SDS011;56471;53.508;49.252;2023-06-26T09:35:14;4.40;;;3.85;;
69325;SDS011;56471;53.508;49.252;2023-06-26T09:37:40;4.30;;;3.70;;
69325;SDS011;56471;53.508;49.252;2023-06-26T09:40:06;7.28;;;4.15;;
69325;SDS011;56471;53.508;49.252;2023-06-26T09:42:33;7.68;;;3.75;;
69325;SDS011;56471;53.508;49.252;2023-06-26T09:44:59;4.93;;;3.90;;
69325;SDS011;56471;53.508;49.252;2023-06-26T09:47:24;7.32;;;4.57;;
69325;SDS011;56471;53.508;49.252;2023-06-26T09:49:50;8.75;;;5.57;;
69325;SDS011;56471;53.508;49.252;2023-06-26T09:52:17;10.77;;;6.47;;
69325;SDS011;56471;53.508;49.252;2023-06-26T09:54:45;8.48;;;5.68;;
69325;SDS011;56471;53.508;49.252;2023-06-26T09:57:11;7.25;;;4.55;;
69325;SDS011;56471;53.508;49.252;2023-06-26T09:59:39;8.13;;;4.45;;
69325;SDS011;56471;53.508;49.252;2023-06-26T10:02:05;5.72;;;4.80;;
69325;SDS011;56471;53.508;49.252;2023-06-26T10:04:31;4.65;;;4.18;;
69325;SDS011;56471;53.508;49.252;2023-06-26T10:06:58;4.65;;;4.15;;
69325;SDS011;56471;53.508;49.252;2023-06-26T10:09:26;4.85;;;4.35;;
69325;SDS011;56471;53.508;49.252;2023-06-26T10:12:03;4.22;;;3.83;;
69325;SDS011;56471;53.508;49.252;2023-06-26T10:14:35;4.68;;;4.10;;
69325;SDS011;56471;53.508;49.252;2023-06-26T10:17:06;5.55;;;4.07;;
69325;SDS011;56471;53.508;49.252;2023-06-26T10:19:35;6.95;;;4.78;;
69325;SDS011;56471;53.508;49.252;2023-06-26T10:22:03;6.05;;;4.45;;
69325;SDS011;56471;53.508;49.252;2023-06-26T10:24:31;5.43;;;4.55;;
69325;SDS011;56471;53.508;49.252;2023-06-26T10:27:00;6.07;;;4.50;;
69325;SDS011;56471;53.508;49.252;2023-06-26T10:29:29;5.28;;;4.45;;
69325;SDS011;56471;53.508;49.252;2023-06-26T10:31:57;8.45;;;4.80;;
69325;SDS011;56471;53.508;49.252;2023-06-26T10:34:25;4.88;;;4.35;;
69325;SDS011;56471;53.508;49.252;2023-06-26T10:37:04;4.97;;;4.47;;
69325;SDS011;56471;53.508;49.252;2023-06-26T10:42:14;6.07;;;4.13;;
69325;SDS011;56471;53.508;49.252;2023-06-26T10:44:44;6.32;;;4.43;;
69325;SDS011;56471;53.508;49.252;2023-06-26T10:47:30;4.93;;;4.43;;
69325;SDS011;56471;53.508;49.252;2023-06-26T10:50:12;4.95;;;4.45;;
69325;SDS011;56471;53.508;49.252;2023-06-26T10:55:51;261.95;;;214.07;;
69325;SDS011;56471;53.508;49.252;2023-06-26T11:03:39;87.25;;;58.50;;
69325;SDS011;56471;53.508;49.252;2023-06-26T11:06:09;62.20;;;40.83;;
69325;SDS011;56471;53.508;49.252;2023-06-26T11:08:49;32.38;;;22.05;;
69325;SDS011;56471;53.508;49.252;2023-06-26T11:11:18;17.55;;;12.35;;
69325;SDS011;56471;53.508;49.252;2023-06-26T11:13:45;13.18;;;9.60;;
69325;SDS011;56471;53.508;49.252;2023-06-26T11:16:12;9.73;;;7.60;;
69325;SDS011;56471;53.508;49.252;2023-06-26T11:18:39;7.10;;;5.82;;
69325;SDS011;56471;53.508;49.252;2023-06-26T11:21:09;6.82;;;5.65;;
69325;SDS011;56471;53.508;49.252;2023-06-26T11:23:38;5.18;;;4.68;;
69325;SDS011;56471;53.508;49.252;2023-06-26T11:26:20;4.32;;;3.92;;
69325;SDS011;56471;53.508;49.252;2023-06-26T11:28:50;6.15;;;4.07;;
69325;SDS011;56471;53.508;49.252;2023-06-26T11:31:32;5.40;;;4.20;;
69325;SDS011;56471;53.508;49.252;2023-06-26T11:34:08;4.75;;;4.10;;
69325;SDS011;56471;53.508;49.252;2023-06-26T11:36:36;5.15;;;3.70;;
69325;SDS011;56471;53.508;49.252;2023-06-26T11:39:07;5.65;;;3.72;;
69325;SDS011;56471;53.508;49.252;2023-06-26T11:41:37;5.03;;;4.00;;
69325;SDS011;56471;53.508;49.252;2023-06-26T11:44:04;5.88;;;4.47;;
69325;SDS011;56471;53.508;49.252;2023-06-26T11:46:31;7.63;;;4.50;;
69325;SDS011;56471;53.508;49.252;2023-06-26T11:48:57;4.68;;;3.85;;
69325;SDS011;56471;53.508;49.252;2023-06-26T11:51:23;7.25;;;3.90;;
69325;SDS011;56471;53.508;49.252;2023-06-26T11:53:51;4.32;;;3.58;;
69325;SDS011;56471;53.508;49.252;2023-06-26T11:56:18;4.70;;;4.10;;
69325;SDS011;56471;53.508;49.252;2023-06-26T11:59:03;254.18;;;204.85;;
69325;SDS011;56471;53.508;49.252;2023-06-26T12:01:36;365.58;;;305.33;;
69325;SDS011;56471;53.508;49.252;2023-06-26T12:04:13;217.68;;;165.75;;
69325;SDS011;56471;53.508;49.252;2023-06-26T12:06:47;141.25;;;107.80;;
69325;SDS011;56471;53.508;49.252;2023-06-26T12:09:15;92.70;;;64.30;;
69325;SDS011;56471;53.508;49.252;2023-06-26T12:11:44;65.40;;;43.58;;
69325;SDS011;56471;53.508;49.252;2023-06-26T12:14:13;45.58;;;30.55;;
69325;SDS011;56471;53.508;49.252;2023-06-26T12:16:39;32.25;;;21.15;;
69325;SDS011;56471;53.508;49.252;2023-06-26T12:19:06;15.48;;;11.52;;
69325;SDS011;56471;53.508;49.252;2023-06-26T12:23:59;9.50;;;7.05;;
69325;SDS011;56471;53.508;49.252;2023-06-26T12:26:26;6.07;;;5.47;;
69325;SDS011;56471;53.508;49.252;2023-06-26T12:28:53;6.03;;;5.00;;
69325;SDS011;56471;53.508;49.252;2023-06-26T12:31:20;6.95;;;4.80;;
69325;SDS011;56471;53.508;49.252;2023-06-26T12:33:47;7.32;;;4.20;;
69325;SDS011;56471;53.508;49.252;2023-06-26T12:36:13;5.13;;;4.20;;
69325;SDS011;56471;53.508;49.252;2023-06-26T12:38:44;4.55;;;4.15;;
69325;SDS011;56471;53.508;49.252;2023-06-26T12:41:13;5.35;;;3.97;;
69325;SDS011;56471;53.508;49.252;2023-06-26T12:43:42;4.75;;;3.50;;
69325;SDS011;56471;53.508;49.252;2023-06-26T12:46:08;4.30;;;3.63;;
69325;SDS011;56471;53.508;49.252;2023-06-26T12:48:41;3.75;;;3.40;;
69325;SDS011;56471;53.508;49.252;2023-06-26T12:51:14;3.22;;;2.92;;
69325;SDS011;56471;53.508;49.252;2023-06-26T12:53:40;5.30;;;2.95;;
69325;SDS011;56471;53.508;49.252;2023-06-26T12:56:07;3.20;;;2.90;;
69325;SDS011;56471;53.508;49.252;2023-06-26T12:58:34;3.50;;;3.20;;
69325;SDS011;56471;53.508;49.252;2023-06-26T13:01:02;5.18;;;3.42;;
69325;SDS011;56471;53.508;49.252;2023-06-26T13:03:29;4.13;;;3.50;;
69325;SDS011;56471;53.508;49.252;2023-06-26T13:05:57;3.00;;;2.80;;
69325;SDS011;56471;53.508;49.252;2023-06-26T13:08:23;4.82;;;3.13;;
69325;SDS011;56471;53.508;49.252;2023-06-26T13:10:48;5.43;;;3.10;;
69325;SDS011;56471;53.508;49.252;2023-06-26T13:13:14;58.05;;;39.65;;
69325;SDS011;56471;53.508;49.252;2023-06-26T13:15:40;427.42;;;380.48;;
69325;SDS011;56471;53.508;49.252;2023-06-26T13:18:05;281.90;;;247.07;;
69325;SDS011;56471;53.508;49.252;2023-06-26T13:20:31;167.82;;;130.65;;
69325;SDS011;56471;53.508;49.252;2023-06-26T13:22:57;96.82;;;71.35;;
69325;SDS011;56471;53.508;49.252;2023-06-26T13:25:22;49.25;;;34.22;;
69325;SDS011;56471;53.508;49.252;2023-06-26T13:27:48;31.85;;;23.58;;
69325;SDS011;56471;53.508;49.252;2023-06-26T13:30:17;22.15;;;16.60;;
69325;SDS011;56471;53.508;49.252;2023-06-26T13:32:42;14.38;;;11.07;;
69325;SDS011;56471;53.508;49.252;2023-06-26T13:35:09;10.70;;;7.60;;
69325;SDS011;56471;53.508;49.252;2023-06-26T13:37:34;6.75;;;5.85;;
69325;SDS011;56471;53.508;49.252;2023-06-26T13:40:02;5.57;;;4.70;;
69325;SDS011;56471;53.508;49.252;2023-06-26T13:42:28;5.25;;;4.53;;
69325;SDS011;56471;53.508;49.252;2023-06-26T13:44:54;5.50;;;3.30;;
69325;SDS011;56471;53.508;49.252;2023-06-26T13:47:20;3.35;;;3.05;;
69325;SDS011;56471;53.508;49.252;2023-06-26T13:49:46;3.00;;;2.67;;
69325;SDS011;56471;53.508;49.252;2023-06-26T13:52:12;2.90;;;2.60;;
69325;SDS011;56471;53.508;49.252;2023-06-26T13:54:37;2.65;;;2.45;;
69325;SDS011;56471;53.508;49.252;2023-06-26T13:57:05;2.72;;;2.40;;
69325;SDS011;56471;53.508;49.252;2023-06-26T13:59:31;3.53;;;2.40;;
69325;SDS011;56471;53.508;49.252;2023-06-26T14:01:58;2.95;;;2.35;;
69325;SDS011;56471;53.508;49.252;2023-06-26T14:04:24;2.72;;;2.20;;
69325;SDS011;56471;53.508;49.252;2023-06-26T14:06:50;2.42;;;2.20;;
69325;SDS011;56471;53.508;49.252;2023-06-26T14:09:16;3.58;;;2.30;;
69325;SDS011;56471;53.508;49.252;2023-06-26T14:11:43;4.75;;;2.60;;
69325;SDS011;56471;53.508;49.252;2023-06-26T14:14:08;2.92;;;2.17;;
69325;SDS011;56471;53.508;49.252;2023-06-26T14:16:34;3.20;;;2.30;;
69325;SDS011;56471;53.508;49.252;2023-06-26T14:19:00;4.43;;;2.25;;
69325;SDS011;56471;53.508;49.252;2023-06-26T14:21:26;2.40;;;2.20;;
69325;SDS011;56471;53.508;49.252;2023-06-26T14:23:53;2.85;;;2.30;;
69325;SDS011;56471;53.508;49.252;2023-06-26T14:26:20;4.68;;;2.40;;
69325;SDS011;56471;53.508;49.252;2023-06-26T14:28:46;3.58;;;2.30;;
69325;SDS011;56471;53.508;49.252;2023-06-26T14:31:12;2.65;;;2.13;;
69325;SDS011;56471;53.508;49.252;2023-06-26T14:33:37;2.55;;;2.35;;
69325;SDS011;56471;53.508;49.252;2023-06-26T14:36:03;2.80;;;2.15;;
69325;SDS011;56471;53.508;49.252;2023-06-26T14:38:29;4.38;;;2.53;;
69325;SDS011;56471;53.508;49.252;2023-06-26T14:40:55;2.90;;;2.47;;
69325;SDS011;56471;53.508;49.252;2023-06-26T14:43:21;4.65;;;2.50;;